Gorzow Wielkopolski, Poland
Current Conditions -  °F | °C
As of 11:00 PM on Saturday 20 Dec 2014 (Local Time) from EPZG Reporting Station
Overcast Overcast  
Wind Chill: 30°   Ceiling: 1400
Heat Index: 39°   Visibility: 6mi
Dew Point: 36°   Wind: 20mph
Humidity: 87%   Direction: 240°WSW
Pressure: 29.8"   Gusts: 31mph
Location:  52.74°N, 15.23°E
Report Text: EPZG 202100Z 24017G27KT 9999 BKN014 OVC029 04/02 Q1009
Loading
Personal Weather Stations






























Interactive Weather Map New forecast layout! Learn more

10-Day Weather Forecast

Advertisements
Track Severe Weather on mobile